Pagrindinis puslapis
METAR-TAF:

METAR-TAF

Oro uostai :

Piedras Negras, Meksika

platuma: 28-42N, ilguma: 100-31W, Aukštis: 250 m

Dabartinis oras

Ataskaita buvo paskelbta 7 valandos ir 56 minutes, ne 23:40 UTC
Vėjas 6 kt iš Rytų/Pietryčių
Temperatūra 32°C
Drėgmė 38%
Slėgis 1011 hPa
Matomumas: 16.1 km
Mažai debesys ne aukštis 4000 ft

METAR: MMPG 262340Z 12006KT 10SM FEW040 32/16 A2984 RMK 8/100

Laikas: 02:36 (07:36 UTC)

Prognozė

Ataskaita buvo paskelbta 2 valandos ir 38 minutes, ne 04:58 UTC
Prognozė galioja nuo 27 metu 06 UTC su 28 metu 06 UTC
Vėjas 5 kt iš Rytų/Pietryčių
Matomumas: 10 km
Išsisklaidę debesys ne aukštis 4000 ft
Laikinai
nuo 27 metu 12 UTC su 27 metu 15 UTC
Su prošvaistėmis ne aukštis 3000 ft
Nuo 27 metu 1800 UTC
Vėjas 10 kt iš Pietų
Matomumas: 10 km
Giedras dangus
Nuo 28 metu 0300 UTC
Vėjas 8 kt iš Pietvakarių
Matomumas: 10 km
Išsisklaidę debesys ne aukštis 4000 ft

TAF: MMPG 270458Z 2706/2806 12005KT P6SM SCT040 TEMPO 2712/2715 BKN030 FM271800 18010KT P6SM SKC FM280300 22008KT P6SM SCT040

Orai ataskaitas ir orų prognozės (METAR, TAF).

turimą stotys yra geltonos ir raudonos taškus žemėlapyje.

Perkelti pele per norėdami pamatyti stoties vardą.

Tada spustelėkite, norėdami matyti oro stebėjimo ir prognozės.

Norėdami pakeisti žemėlapį: spustelėkite ant žalios mygtukų su juodo kryžiaus žemyn,; žalią mygtuką su brūkšneliu, jei norite nutolinti; arba žalių rodyklių gretimoms žemėlapius.


METAR-TAF: